Time;durP1;ratioP1;P1;durP2;ratioP2;P2;SDS_P1;SDS_P2;PMS_P1;PMS_P2;Temp;Humidity;BMP_temperature;BMP_pressure;BME280_temperature;BME280_humidity;BME280_pressure;Samples;Min_cycle;Max_cycle;Signal;HPM_P1;HPM_P2
2023/01/22 00:01:07;;;;;;;5.07;2.80;;;8.10;99.90;;;;;;5065343;28;20083;-78
2023/01/22 00:03:36;;;;;;;8.90;3.58;;;8.00;99.90;;;;;;5092783;28;20036;-78
2023/01/22 00:06:04;;;;;;;5.72;3.00;;;8.00;99.90;;;;;;5064905;28;20028;-78
2023/01/22 00:08:33;;;;;;;5.38;3.22;;;8.00;99.90;;;;;;5063754;28;20488;-79
2023/01/22 00:11:00;;;;;;;5.68;3.17;;;7.90;99.90;;;;;;5063788;28;20036;-79
2023/01/22 00:13:28;;;;;;;9.38;3.35;;;7.90;99.90;;;;;;5057342;28;20048;-79
2023/01/22 00:15:57;;;;;;;5.30;2.88;;;7.90;99.90;;;;;;5048642;28;20140;-79
2023/01/22 00:18:25;;;;;;;8.45;3.30;;;7.90;99.90;;;;;;5064108;28;20421;-79
2023/01/22 00:20:53;;;;;;;5.53;3.10;;;7.90;99.90;;;;;;5061798;28;20507;-78
2023/01/22 00:23:22;;;;;;;4.45;2.75;;;7.90;99.90;;;;;;5065032;28;20072;-79
2023/01/22 00:26:00;;;;;;;4.40;2.95;;;7.90;99.90;;;;;;5064174;28;20041;-79
2023/01/22 00:28:28;;;;;;;3.92;2.28;;;7.90;99.90;;;;;;5061456;28;20037;-79
2023/01/22 00:31:00;;;;;;;7.80;3.88;;;7.90;99.90;;;;;;5072938;28;20067;-79
2023/01/22 00:33:31;;;;;;;8.07;2.67;;;7.90;99.90;;;;;;5047706;28;20052;-77
2023/01/22 00:36:05;;;;;;;5.10;2.30;;;7.90;99.90;;;;;;5063528;28;20486;-76
2023/01/22 00:38:33;;;;;;;6.15;2.30;;;7.90;99.90;;;;;;5063619;28;20340;-79
2023/01/22 00:41:06;;;;;;;4.32;2.65;;;8.00;99.90;;;;;;5067780;28;20045;-77
2023/01/22 00:43:37;;;;;;;3.45;2.80;;;8.00;99.90;;;;;;5064191;28;20041;-77
2023/01/22 00:46:09;;;;;;;5.53;3.35;;;8.00;99.90;;;;;;5093827;28;20105;-78
2023/01/22 00:48:37;;;;;;;5.75;3.33;;;7.90;99.90;;;;;;5063569;28;20072;-77
2023/01/22 00:51:09;;;;;;;4.40;3.28;;;8.00;99.90;;;;;;5068394;28;20052;-77
2023/01/22 00:53:36;;;;;;;10.02;5.93;;;7.90;99.90;;;;;;5060730;28;20048;-77
2023/01/22 00:56:13;;;;;;;30.40;5.25;;;7.90;99.90;;;;;;5065550;28;20384;-77
2023/01/22 00:58:41;;;;;;;7.53;4.28;;;7.90;99.90;;;;;;5063673;28;20122;-77
2023/01/22 01:01:12;;;;;;;5.75;3.55;;;7.90;99.90;;;;;;5067797;28;20094;-77
2023/01/22 01:03:40;;;;;;;7.03;3.47;;;7.90;99.90;;;;;;5065971;28;20479;-78
2023/01/22 01:06:15;;;;;;;5.10;2.78;;;7.90;99.90;;;;;;5057547;28;20495;-77
2023/01/22 01:08:45;;;;;;;4.90;2.72;;;7.90;99.90;;;;;;5049505;28;20455;-77
2023/01/22 01:11:20;;;;;;;4.70;2.40;;;8.00;99.90;;;;;;5047938;28;20084;-77
2023/01/22 01:13:49;;;;;;;7.72;2.50;;;8.00;99.90;;;;;;5065940;28;20040;-77
2023/01/22 01:16:28;;;;;;;4.65;2.22;;;8.00;99.90;;;;;;5065985;28;20126;-78
2023/01/22 01:19:01;;;;;;;5.78;2.95;;;8.10;99.90;;;;;;5066318;28;20036;-78
2023/01/22 01:21:29;;;;;;;5.35;2.70;;;8.10;99.90;;;;;;5066443;28;20060;-78
2023/01/22 01:23:58;;;;;;;5.28;2.70;;;8.10;99.90;;;;;;5066930;28;22320;-78
2023/01/22 01:26:26;;;;;;;5.45;2.38;;;8.20;99.90;;;;;;5066530;28;20045;-77
2023/01/22 01:28:55;;;;;;;7.68;2.70;;;8.30;99.90;;;;;;5066153;28;20072;-77
2023/01/22 01:31:24;;;;;;;5.57;2.70;;;8.40;99.90;;;;;;5064637;28;20044;-77
2023/01/22 01:33:55;;;;;;;9.10;2.92;;;8.40;99.90;;;;;;5065929;28;20041;-77
2023/01/22 01:36:24;;;;;;;5.82;3.33;;;8.50;99.90;;;;;;5062545;28;20041;-76
2023/01/22 01:39:12;;;;;;;13.07;3.05;;;8.50;99.90;;;;;;5066876;28;20060;-77
2023/01/22 01:41:39;;;;;;;8.52;2.38;;;8.50;99.90;;;;;;5061659;28;20033;-77
2023/01/22 01:44:11;;;;;;;5.60;2.58;;;8.50;99.90;;;;;;5062755;28;20037;-77
2023/01/22 01:47:04;;;;;;;7.85;2.58;;;8.60;99.90;;;;;;5063759;28;20379;-77
2023/01/22 01:49:42;;;;;;;7.60;3.15;;;8.60;99.90;;;;;;5066709;28;20049;-76
2023/01/22 01:52:11;;;;;;;10.90;2.45;;;8.60;99.90;;;;;;5067601;28;20056;-76
2023/01/22 01:54:44;;;;;;;7.05;3.22;;;8.70;99.90;;;;;;5050828;28;20048;-76
2023/01/22 01:57:17;;;;;;;4.35;2.10;;;8.80;99.90;;;;;;5059262;28;20456;-76
2023/01/22 01:59:46;;;;;;;8.73;2.60;;;8.80;99.90;;;;;;5080311;28;20143;-76
2023/01/22 02:02:14;;;;;;;5.47;2.17;;;8.90;99.90;;;;;;5067927;28;20801;-77
2023/01/22 02:04:42;;;;;;;9.25;2.35;;;9.00;99.90;;;;;;5068271;28;20064;-76
2023/01/22 02:07:09;;;;;;;5.68;2.22;;;9.10;99.90;;;;;;5062085;28;20091;-76
2023/01/22 02:09:37;;;;;;;5.90;2.13;;;9.10;99.90;;;;;;5066092;28;20110;-76
2023/01/22 02:12:05;;;;;;;5.22;3.08;;;9.10;99.90;;;;;;5062039;28;20098;-76
2023/01/22 02:14:38;;;;;;;3.42;2.25;;;9.10;99.90;;;;;;5064623;28;20856;-77
2023/01/22 02:17:12;;;;;;;5.07;3.38;;;9.10;99.90;;;;;;5066409;28;20049;-77
2023/01/22 02:19:40;;;;;;;6.53;3.80;;;9.10;99.90;;;;;;5078228;28;20364;-76
2023/01/22 02:22:19;;;;;;;7.47;2.72;;;9.10;99.90;;;;;;5065842;28;20052;-76
2023/01/22 02:24:46;;;;;;;6.22;3.10;;;9.10;99.90;;;;;;5065664;28;20048;-76
2023/01/22 02:27:14;;;;;;;8.18;2.33;;;9.10;99.90;;;;;;5066440;28;20578;-76
2023/01/22 02:29:42;;;;;;;5.35;2.75;;;9.10;99.90;;;;;;5065724;28;20503;-76
2023/01/22 02:32:11;;;;;;;8.20;3.63;;;9.00;99.90;;;;;;5061306;28;20055;-76
2023/01/22 02:34:38;;;;;;;5.55;2.97;;;9.00;99.90;;;;;;5065860;28;20068;-77
2023/01/22 02:37:06;;;;;;;6.32;2.97;;;9.00;99.90;;;;;;5066494;28;20508;-76
2023/01/22 02:39:34;;;;;;;10.30;3.88;;;9.00;99.90;;;;;;5064310;28;20099;-77
2023/01/22 02:42:06;;;;;;;5.38;3.08;;;9.00;99.90;;;;;;5064252;28;20450;-77
2023/01/22 02:44:35;;;;;;;7.43;4.32;;;9.00;99.90;;;;;;5066184;28;20051;-77
2023/01/22 02:47:03;;;;;;;12.77;5.90;;;9.00;99.90;;;;;;5062011;28;20924;-77
2023/01/22 02:49:32;;;;;;;9.25;5.72;;;9.10;99.90;;;;;;5065251;28;20040;-76
2023/01/22 02:52:00;;;;;;;11.02;5.35;;;9.20;99.90;;;;;;5060672;28;20560;-77
2023/01/22 02:54:29;;;;;;;11.82;5.97;;;9.20;99.90;;;;;;5063190;28;20052;-77
2023/01/22 02:56:57;;;;;;;9.57;4.63;;;9.20;99.90;;;;;;5039333;28;20110;-77
2023/01/22 02:59:24;;;;;;;10.95;3.90;;;9.20;99.90;;;;;;5081174;28;20161;-76
2023/01/22 03:01:52;;;;;;;8.52;3.75;;;9.20;99.90;;;;;;5064450;28;20082;-77
2023/01/22 03:04:19;;;;;;;30.63;4.55;;;9.20;99.90;;;;;;5061969;28;20052;-76
2023/01/22 03:06:47;;;;;;;9.60;3.58;;;9.20;99.90;;;;;;5062158;28;20854;-77
2023/01/22 03:09:16;;;;;;;7.40;3.80;;;9.20;99.90;;;;;;5067203;28;20041;-77
2023/01/22 03:11:45;;;;;;;5.47;2.85;;;9.20;99.90;;;;;;5050314;28;20084;-77
2023/01/22 03:22:46;;;;;;;6.05;2.97;;;9.10;99.90;;;;;;5066740;28;20105;-77
2023/01/22 03:25:13;;;;;;;7.18;3.08;;;9.10;99.90;;;;;;5067028;28;20113;-77
2023/01/22 03:28:07;;;;;;;7.95;3.60;;;9.10;99.90;;;;;;5065933;28;20041;-77
2023/01/22 03:30:30;;;;;;;4.78;2.80;;;9.00;99.90;;;;;;5064626;28;20094;-77
2023/01/22 03:32:57;;;;;;;13.15;5.75;;;9.00;99.90;;;;;;5064561;28;20094;-77
2023/01/22 03:35:26;;;;;;;5.10;3.75;;;8.90;99.90;;;;;;5064192;28;20040;-76
2023/01/22 03:38:16;;;;;;;8.93;4.18;;;8.90;99.90;;;;;;5065783;28;20052;-78
2023/01/22 03:40:44;;;;;;;6.07;3.55;;;8.80;99.90;;;;;;5064871;28;20079;-77
2023/01/22 03:43:13;;;;;;;5.75;3.10;;;8.80;99.90;;;;;;5049435;28;20037;-77
2023/01/22 03:45:41;;;;;;;7.43;3.85;;;8.80;99.90;;;;;;5066486;28;20049;-77
2023/01/22 03:48:12;;;;;;;11.23;5.72;;;8.70;99.90;;;;;;5066412;28;20051;-77
2023/01/22 03:50:40;;;;;;;7.93;3.90;;;8.70;99.90;;;;;;5049554;28;20044;-77
2023/01/22 03:53:08;;;;;;;10.00;3.85;;;8.60;99.90;;;;;;5067705;28;20512;-78
2023/01/22 03:55:35;;;;;;;5.25;2.55;;;8.60;99.90;;;;;;5049118;28;20040;-78
2023/01/22 03:58:03;;;;;;;9.35;3.10;;;8.50;99.90;;;;;;5066295;28;20087;-77
2023/01/22 04:00:31;;;;;;;3.50;2.10;;;8.50;99.90;;;;;;5066116;28;20064;-76
2023/01/22 04:03:00;;;;;;;5.05;2.30;;;8.40;99.90;;;;;;5049815;28;20064;-77
2023/01/22 04:05:34;;;;;;;7.85;2.17;;;8.30;99.90;;;;;;5066193;28;20169;-77
2023/01/22 04:08:01;;;;;;;6.53;2.53;;;8.20;99.90;;;;;;5049564;28;20052;-77
2023/01/22 04:10:30;;;;;;;5.47;2.10;;;8.10;99.90;;;;;;5066062;28;20053;-77
2023/01/22 04:13:00;;;;;;;4.47;2.33;;;8.10;99.90;;;;;;5062300;28;20126;-77
2023/01/22 04:15:28;;;;;;;3.45;2.17;;;8.10;99.90;;;;;;5049730;28;20045;-77
2023/01/22 04:17:57;;;;;;;6.93;2.85;;;8.00;99.90;;;;;;5069465;28;20139;-79
2023/01/22 04:20:45;;;;;;;7.10;2.07;;;8.00;99.90;;;;;;5069574;28;20040;-77
2023/01/22 04:23:19;;;;;;;4.57;2.58;;;8.00;99.90;;;;;;5001180;28;1424655;-77
2023/01/22 04:25:48;;;;;;;6.28;2.15;;;7.90;99.90;;;;;;5052054;28;20523;-77
2023/01/22 04:28:16;;;;;;;5.88;3.25;;;7.90;99.90;;;;;;5070883;28;20502;-76
2023/01/22 04:30:49;;;;;;;4.25;2.45;;;7.90;99.90;;;;;;5054234;28;20041;-77
2023/01/22 04:33:52;;;;;;;3.13;2.00;;;7.80;99.90;;;;;;5029502;28;20081;-77
2023/01/22 04:36:26;;;;;;;5.10;2.42;;;7.80;99.90;;;;;;5034973;28;20082;-76
2023/01/22 04:38:55;;;;;;;5.13;2.20;;;7.80;99.90;;;;;;5054177;28;20041;-76
2023/01/22 04:41:22;;;;;;;4.57;1.70;;;7.80;99.90;;;;;;5070527;28;20429;-77
2023/01/22 04:43:51;;;;;;;7.53;2.45;;;7.80;99.90;;;;;;5070521;28;20044;-77
2023/01/22 04:46:21;;;;;;;5.63;1.83;;;7.80;99.90;;;;;;5070618;28;20156;-77
2023/01/22 04:48:49;;;;;;;5.05;2.75;;;7.90;99.90;;;;;;5053652;28;20048;-77
2023/01/22 04:51:18;;;;;;;9.70;2.03;;;8.00;99.90;;;;;;5053784;28;20577;-77
2023/01/22 04:53:46;;;;;;;3.35;1.80;;;8.00;99.90;;;;;;5070274;28;20479;-77
2023/01/22 04:56:13;;;;;;;4.13;2.08;;;8.00;99.90;;;;;;5070003;28;20048;-77
2023/01/22 04:58:42;;;;;;;3.33;1.63;;;8.10;99.90;;;;;;5053732;28;20040;-77
2023/01/22 05:01:10;;;;;;;4.88;1.77;;;8.10;99.90;;;;;;5069847;28;20036;-77
2023/01/22 05:03:38;;;;;;;4.70;1.80;;;8.20;99.90;;;;;;5070354;28;20398;-77
2023/01/22 05:06:07;;;;;;;4.43;1.50;;;8.20;99.90;;;;;;5070224;28;20063;-77
2023/01/22 05:08:36;;;;;;;3.88;1.88;;;8.30;99.90;;;;;;5071428;28;20163;-77
2023/01/22 05:11:03;;;;;;;4.00;1.90;;;8.30;99.90;;;;;;5053472;28;20086;-77
2023/01/22 05:13:40;;;;;;;4.68;2.45;;;8.20;99.90;;;;;;5054847;28;20507;-76
2023/01/22 05:16:09;;;;;;;3.22;1.75;;;8.20;99.90;;;;;;5053663;28;20077;-77
2023/01/22 05:18:36;;;;;;;4.03;1.65;;;8.20;99.90;;;;;;5053520;28;20055;-77
2023/01/22 05:21:04;;;;;;;6.32;2.15;;;8.10;99.90;;;;;;5069640;28;20043;-77
2023/01/22 05:23:33;;;;;;;2.92;1.55;;;8.10;99.90;;;;;;5053096;28;20763;-78
2023/01/22 05:26:01;;;;;;;3.92;2.40;;;8.00;99.90;;;;;;5070080;28;20796;-77
2023/01/22 05:28:41;;;;;;;3.75;2.20;;;7.90;99.90;;;;;;5052808;28;20049;-77
2023/01/22 05:31:29;;;;;;;4.88;2.35;;;7.90;99.90;;;;;;5063751;28;20536;-77
2023/01/22 05:34:06;;;;;;;4.80;2.67;;;7.80;99.90;;;;;;5065080;28;20570;-77
2023/01/22 05:36:34;;;;;;;4.07;2.67;;;7.80;99.90;;;;;;5046277;28;20056;-77
2023/01/22 05:39:15;;;;;;;6.57;2.35;;;7.80;99.90;;;;;;5055294;28;20070;-78
2023/01/22 05:41:44;;;;;;;6.35;2.63;;;7.80;99.90;;;;;;5069373;28;20122;-76
2023/01/22 05:44:13;;;;;;;4.72;2.22;;;7.70;99.90;;;;;;5069677;28;20040;-77
2023/01/22 05:46:43;;;;;;;7.60;2.63;;;7.80;99.90;;;;;;5070965;28;20048;-77
2023/01/22 05:49:33;;;;;;;6.03;2.10;;;7.80;99.90;;;;;;5067700;28;20387;-77
2023/01/22 05:52:01;;;;;;;5.80;2.10;;;7.80;99.90;;;;;;5069531;28;20055;-77
2023/01/22 05:54:30;;;;;;;6.18;2.38;;;7.80;99.90;;;;;;5068918;28;20037;-77
2023/01/22 05:56:59;;;;;;;3.28;1.90;;;7.80;99.90;;;;;;5070228;28;20048;-77
2023/01/22 05:59:28;;;;;;;7.10;2.53;;;7.70;99.90;;;;;;5068771;28;20037;-77
2023/01/22 06:02:00;;;;;;;4.30;1.70;;;7.70;99.90;;;;;;5052675;28;20141;-77
2023/01/22 06:04:28;;;;;;;3.97;1.52;;;7.80;99.90;;;;;;5069286;28;20047;-77
2023/01/22 06:06:58;;;;;;;6.57;1.90;;;7.80;99.90;;;;;;5069215;28;20190;-77
2023/01/22 06:09:26;;;;;;;4.70;2.85;;;7.80;99.90;;;;;;5035957;28;20052;-77
2023/01/22 06:11:55;;;;;;;4.75;2.05;;;7.80;99.90;;;;;;5049326;28;20171;-78
2023/01/22 06:14:22;;;;;;;5.28;2.85;;;7.80;99.90;;;;;;5066920;28;20045;-76
2023/01/22 06:16:50;;;;;;;5.72;2.10;;;7.80;99.90;;;;;;5064106;28;20044;-75
2023/01/22 06:19:27;;;;;;;9.02;2.45;;;7.90;99.90;;;;;;5050744;28;20498;-76
2023/01/22 06:21:55;;;;;;;5.85;2.53;;;7.90;99.90;;;;;;5063928;28;20064;-76
2023/01/22 06:24:34;;;;;;;5.38;2.20;;;7.90;99.90;;;;;;5067430;28;20504;-77
2023/01/22 06:27:03;;;;;;;4.65;1.75;;;8.00;99.90;;;;;;5064131;28;20028;-77
2023/01/22 06:29:39;;;;;;;6.72;2.13;;;8.10;99.90;;;;;;5067357;28;20098;-77
2023/01/22 06:32:07;;;;;;;5.28;2.75;;;8.10;99.90;;;;;;5053421;28;20048;-78
2023/01/22 06:34:34;;;;;;;5.00;1.90;;;8.20;99.90;;;;;;5030404;28;20059;-77
2023/01/22 06:37:03;;;;;;;9.63;2.45;;;8.40;99.90;;;;;;5058568;28;20060;-78
2023/01/22 06:39:36;;;;;;;4.35;2.15;;;8.70;99.90;;;;;;5067223;28;20532;-78
2023/01/22 06:42:15;;;;;;;5.47;1.98;;;9.00;99.90;;;;;;5051709;28;20476;-77
2023/01/22 06:44:43;;;;;;;4.50;1.63;;;9.30;99.90;;;;;;5047316;28;20045;-77
2023/01/22 06:47:11;;;;;;;7.82;2.40;;;9.40;99.90;;;;;;5058878;28;20033;-78
2023/01/22 06:49:38;;;;;;;3.08;1.60;;;9.70;99.90;;;;;;5067521;28;20052;-77
2023/01/22 06:52:07;;;;;;;5.30;2.22;;;10.00;99.90;;;;;;5054518;28;20060;-77
2023/01/22 06:54:35;;;;;;;4.93;1.98;;;9.90;99.90;;;;;;5047344;28;20063;-78
2023/01/22 06:57:04;;;;;;;7.18;2.13;;;9.70;99.90;;;;;;5057431;28;20180;-77
2023/01/22 06:59:35;;;;;;;5.30;2.03;;;10.00;99.90;;;;;;5050421;28;20052;-77
2023/01/22 07:02:03;;;;;;;6.38;3.05;;;10.50;99.90;;;;;;5053972;28;20048;-77
2023/01/22 07:04:30;;;;;;;5.30;2.28;;;10.90;99.90;;;;;;5047454;28;20040;-78
2023/01/22 07:06:58;;;;;;;4.15;1.85;;;11.40;99.90;;;;;;5056539;28;20127;-78
2023/01/22 07:09:25;;;;;;;5.85;2.00;;;11.60;99.90;;;;;;5066868;28;20525;-78
2023/01/22 07:11:53;;;;;;;7.07;2.75;;;11.70;99.90;;;;;;5062701;28;20067;-78
2023/01/22 07:14:20;;;;;;;4.45;2.50;;;11.80;99.90;;;;;;5047421;28;20340;-77
2023/01/22 07:17:02;;;;;;;4.00;1.70;;;12.10;99.90;;;;;;5060942;28;20048;-78
2023/01/22 07:19:30;;;;;;;5.57;1.77;;;12.40;99.90;;;;;;5067813;28;20135;-78
2023/01/22 07:21:57;;;;;;;4.05;1.70;;;12.70;99.90;;;;;;5054599;28;20080;-78
2023/01/22 07:24:25;;;;;;;4.05;2.10;;;12.80;99.90;;;;;;5048073;28;20053;-78
2023/01/22 07:26:53;;;;;;;4.10;1.92;;;13.10;99.90;;;;;;5059508;28;20147;-77
2023/01/22 07:29:20;;;;;;;7.85;2.10;;;13.50;99.90;;;;;;5067594;28;20048;-77
2023/01/22 07:31:48;;;;;;;4.30;2.28;;;13.60;99.90;;;;;;5055601;28;20364;-76
2023/01/22 07:34:16;;;;;;;4.03;1.70;;;13.80;99.90;;;;;;5047574;28;20128;-76
2023/01/22 07:36:45;;;;;;;4.35;2.20;;;13.80;99.90;;;;;;5055452;28;20128;-77
2023/01/22 07:39:12;;;;;;;5.00;2.38;;;13.30;99.90;;;;;;5067904;28;20139;-78
2023/01/22 07:41:41;;;;;;;5.75;2.00;;;12.50;99.90;;;;;;5066360;28;20079;-78
2023/01/22 07:44:11;;;;;;;6.85;2.55;;;11.90;99.90;;;;;;5066242;28;20140;-77
2023/01/22 07:46:39;;;;;;;9.25;3.25;;;11.60;99.90;;;;;;5062609;28;20127;-78
2023/01/22 07:49:07;;;;;;;4.43;2.90;;;11.30;99.90;;;;;;5068071;28;20131;-78
2023/01/22 07:51:35;;;;;;;5.72;2.35;;;11.20;99.90;;;;;;5057700;28;20055;-78
2023/01/22 07:54:02;;;;;;;6.78;2.60;;;11.00;99.90;;;;;;5046694;28;20430;-78
2023/01/22 07:56:30;;;;;;;12.35;3.95;;;10.90;99.90;;;;;;5050121;28;20387;-77
2023/01/22 07:58:58;;;;;;;6.90;4.30;;;10.90;99.90;;;;;;5066229;28;20043;-78
2023/01/22 08:01:25;;;;;;;6.88;2.42;;;10.80;99.90;;;;;;5065643;28;20417;-78
2023/01/22 08:03:53;;;;;;;6.72;2.50;;;10.70;99.90;;;;;;5066033;28;20044;-78
2023/01/22 08:06:20;;;;;;;6.15;2.50;;;10.70;99.90;;;;;;5061754;28;20102;-77
2023/01/22 08:08:48;;;;;;;6.03;2.63;;;10.60;99.90;;;;;;5067616;28;20155;-79
2023/01/22 08:11:16;;;;;;;8.65;3.90;;;10.60;99.90;;;;;;5058297;28;20053;-78
2023/01/22 08:13:44;;;;;;;8.55;3.15;;;10.60;99.90;;;;;;5046883;28;20045;-77
2023/01/22 08:16:11;;;;;;;7.78;3.42;;;10.70;99.90;;;;;;5049735;28;20147;-75
2023/01/22 08:18:39;;;;;;;7.85;3.17;;;10.70;99.90;;;;;;5066034;28;20044;-78
2023/01/22 08:21:06;;;;;;;7.50;3.90;;;10.70;99.90;;;;;;5060958;28;20371;-77
2023/01/22 08:23:34;;;;;;;7.00;4.15;;;10.70;99.90;;;;;;5046760;28;20081;-78
2023/01/22 08:26:03;;;;;;;7.93;3.50;;;10.70;99.90;;;;;;5046689;28;20044;-78
2023/01/22 08:28:30;;;;;;;4.65;2.97;;;10.70;99.90;;;;;;5065490;28;20049;-77
2023/01/22 08:31:00;;;;;;;8.05;3.13;;;10.80;99.90;;;;;;5061042;28;20037;-77
2023/01/22 08:33:30;;;;;;;3.67;2.83;;;10.80;99.90;;;;;;5047086;28;20558;-78
2023/01/22 08:35:57;;;;;;;4.82;2.60;;;10.90;99.90;;;;;;5047640;28;20045;-77
2023/01/22 08:38:25;;;;;;;5.70;2.78;;;11.00;99.90;;;;;;5066399;28;20507;-76
2023/01/22 08:40:53;;;;;;;3.97;2.13;;;11.10;99.90;;;;;;5061498;28;20068;-76
2023/01/22 08:43:20;;;;;;;5.05;3.35;;;11.10;99.90;;;;;;5044931;28;20198;-76
2023/01/22 08:45:48;;;;;;;4.40;2.33;;;11.20;99.90;;;;;;5047489;28;20045;-76
2023/01/22 08:48:17;;;;;;;7.28;3.45;;;11.40;99.90;;;;;;5047077;28;20829;-78
2023/01/22 08:50:45;;;;;;;5.85;2.65;;;11.50;99.90;;;;;;5066760;28;20411;-78
2023/01/22 08:53:13;;;;;;;3.40;1.67;;;11.60;99.90;;;;;;5059026;28;20037;-77
2023/01/22 08:55:40;;;;;;;3.47;2.30;;;11.70;99.90;;;;;;5057358;28;20523;-77
2023/01/22 08:58:08;;;;;;;4.57;1.92;;;11.80;99.90;;;;;;5061385;28;20107;-77
2023/01/22 09:00:36;;;;;;;3.72;2.03;;;11.90;99.90;;;;;;5068336;28;20599;-77
2023/01/22 09:03:03;;;;;;;5.47;1.77;;;12.20;99.90;;;;;;5050782;28;20041;-77
2023/01/22 09:05:31;;;;;;;4.72;1.80;;;12.30;99.90;;;;;;5061376;28;20064;-77
2023/01/22 09:07:58;;;;;;;4.85;2.00;;;12.50;99.90;;;;;;5056067;28;20037;-77
2023/01/22 09:10:26;;;;;;;5.93;1.90;;;12.70;99.90;;;;;;5058263;28;20553;-77
2023/01/22 09:12:53;;;;;;;7.38;2.35;;;12.60;99.90;;;;;;5048983;28;20040;-77
2023/01/22 09:15:21;;;;;;;4.95;2.47;;;12.50;99.90;;;;;;5063323;28;20040;-76
2023/01/22 09:17:48;;;;;;;3.75;1.90;;;12.40;99.90;;;;;;5058681;28;20045;-77
2023/01/22 09:20:16;;;;;;;3.10;1.42;;;12.20;99.90;;;;;;5065388;28;20041;-77
2023/01/22 09:22:45;;;;;;;7.15;1.98;;;12.10;99.90;;;;;;5058047;28;20084;-77
2023/01/22 09:25:13;;;;;;;5.20;2.45;;;12.10;99.90;;;;;;5052024;28;20055;-78
2023/01/22 09:27:41;;;;;;;2.22;1.35;;;12.10;99.90;;;;;;5063450;28;20043;-76
2023/01/22 09:30:09;;;;;;;3.92;1.98;;;12.10;99.90;;;;;;5069248;28;20135;-76
2023/01/22 09:32:37;;;;;;;11.20;3.17;;;12.10;99.90;;;;;;5054841;28;20580;-77
2023/01/22 09:35:05;;;;;;;2.55;1.50;;;12.10;99.90;;;;;;5049588;28;20059;-77
2023/01/22 09:37:33;;;;;;;1.95;1.38;;;12.10;99.90;;;;;;5065170;28;20041;-74
2023/01/22 09:40:01;;;;;;;2.65;1.45;;;12.20;99.90;;;;;;5069042;28;20077;-74
2023/01/22 09:42:33;;;;;;;3.80;1.83;;;12.20;99.90;;;;;;5052547;28;20052;-75
2023/01/22 09:45:10;;;;;;;2.20;1.30;;;12.20;99.90;;;;;;5052931;28;20044;-75
2023/01/22 09:47:40;;;;;;;;;;;12.20;99.90;;;;;;5068993;28;20044;-74
2023/01/22 09:50:19;;;;;;;3.72;2.17;;;12.30;99.90;;;;;;5070602;28;20019;-73
2023/01/22 09:52:50;;;;;;;4.10;2.22;;;12.60;99.90;;;;;;5068271;28;20041;-74
2023/01/22 09:55:21;;;;;;;4.63;2.78;;;12.50;99.90;;;;;;5063977;28;20033;-74
2023/01/22 09:57:54;;;;;;;6.47;3.50;;;12.40;99.90;;;;;;5068574;28;20098;-73
2023/01/22 10:00:46;;;;;;;3.75;1.70;;;12.50;99.90;;;;;;5051720;28;20117;-74
2023/01/22 10:03:38;;;;;;;3.95;1.95;;;12.50;99.90;;;;;;5031909;28;20110;-73
2023/01/22 10:06:22;;;;;;;3.38;1.88;;;12.60;99.90;;;;;;5048512;28;20059;-72
2023/01/22 10:09:08;;;;;;;3.15;1.48;;;12.50;99.90;;;;;;5064767;28;20127;-75
2023/01/22 10:11:39;;;;;;;5.40;1.92;;;12.50;99.90;;;;;;5051420;28;20043;-73
2023/01/22 10:14:13;;;;;;;6.18;3.55;;;12.50;99.90;;;;;;5051064;28;20049;-72
2023/01/22 10:16:40;;;;;;;4.75;2.40;;;12.50;99.90;;;;;;5068851;28;20044;-74
2023/01/22 10:19:27;;;;;;;4.68;2.10;;;12.40;99.90;;;;;;5067665;28;20111;-74
2023/01/22 10:22:03;;;;;;;7.32;2.30;;;12.40;99.90;;;;;;5065436;28;20057;-73
2023/01/22 10:24:31;;;;;;;9.63;4.88;;;12.40;99.90;;;;;;5060245;28;20041;-73
2023/01/22 10:27:11;;;;;;;7.13;4.03;;;12.40;99.90;;;;;;5067878;28;20064;-73
2023/01/22 10:29:39;;;;;;;3.72;2.20;;;12.40;99.90;;;;;;5068128;28;20463;-72
2023/01/22 10:32:25;;;;;;;4.45;2.80;;;12.30;99.90;;;;;;5050135;28;20044;-73
2023/01/22 10:35:15;;;;;;;4.85;2.22;;;12.00;99.90;;;;;;5052412;28;20052;-77
2023/01/22 10:37:48;;;;;;;5.40;3.33;;;11.50;99.90;;;;;;5068319;28;20043;-72
2023/01/22 10:40:23;;;;;;;7.45;4.38;;;11.20;99.90;;;;;;5068787;28;20102;-74
2023/01/22 10:43:31;;;;;;;9.15;3.50;;;10.80;99.90;;;;;;5041016;28;20044;-73
2023/01/22 10:46:21;;;;;;;5.18;2.58;;;10.70;99.90;;;;;;5056793;28;20222;-73
2023/01/22 10:49:05;;;;;;;10.90;4.82;;;10.60;99.90;;;;;;5065848;28;20044;-74
2023/01/22 10:51:42;;;;;;;17.08;5.13;;;10.70;99.90;;;;;;5065240;28;20037;-77
2023/01/22 10:54:40;;;;;;;4.13;2.30;;;10.80;99.90;;;;;;5067475;28;20153;-74
2023/01/22 10:57:10;;;;;;;8.48;3.75;;;10.70;99.90;;;;;;5050125;28;20087;-73
2023/01/22 10:59:38;;;;;;;7.63;3.83;;;10.70;99.90;;;;;;5066524;28;20124;-73
2023/01/22 11:02:17;;;;;;;7.10;2.90;;;10.70;99.90;;;;;;5069772;28;20395;-74
2023/01/22 11:04:44;;;;;;;6.93;3.47;;;10.70;99.90;;;;;;5066755;28;20433;-73
2023/01/22 11:07:23;;;;;;;5.75;3.72;;;10.70;99.90;;;;;;5067773;28;20390;-73
2023/01/22 11:10:14;;;;;;;4.30;2.10;;;10.80;99.90;;;;;;5068323;28;20111;-74
2023/01/22 11:12:59;;;;;;;5.13;1.73;;;10.90;99.90;;;;;;5064522;28;20074;-74
2023/01/22 11:15:52;;;;;;;2.80;1.73;;;11.00;99.90;;;;;;5039493;28;20040;-74
2023/01/22 11:18:30;;;;;;;1.95;1.58;;;11.10;99.90;;;;;;5064334;28;20041;-73
2023/01/22 11:20:59;;;;;;;2.75;1.70;;;11.20;99.90;;;;;;5067303;28;20041;-72
2023/01/22 11:23:59;;;;;;;3.25;1.70;;;11.20;99.90;;;;;;5067364;28;20123;-72
2023/01/22 11:26:32;;;;;;;3.17;1.63;;;11.30;99.90;;;;;;5066709;28;20414;-71
2023/01/22 11:29:15;;;;;;;2.30;1.83;;;11.40;99.90;;;;;;5031280;28;20059;-72
2023/01/22 11:32:01;;;;;;;8.10;3.15;;;11.60;99.90;;;;;;5065821;28;20049;-72
2023/01/22 11:34:37;;;;;;;6.30;1.83;;;11.70;99.90;;;;;;5056217;28;20040;-73
2023/01/22 11:37:13;;;;;;;5.22;3.33;;;11.80;99.90;;;;;;5046466;28;20060;-72
2023/01/22 11:40:01;;;;;;;3.17;2.35;;;11.90;99.90;;;;;;5080414;28;20055;-71
2023/01/22 11:42:44;;;;;;;3.85;2.13;;;12.00;99.90;;;;;;5067027;28;20490;-72
2023/01/22 11:45:18;;;;;;;5.68;2.33;;;12.10;99.90;;;;;;5066625;28;20040;-73
2023/01/22 11:47:50;;;;;;;5.28;2.72;;;12.20;99.90;;;;;;5050076;28;20052;-73
2023/01/22 11:50:29;;;;;;;6.65;3.25;;;12.10;99.90;;;;;;5097507;28;20097;-73
2023/01/22 11:53:23;;;;;;;9.18;3.67;;;12.00;99.90;;;;;;5065558;28;20057;-73
2023/01/22 11:56:09;;;;;;;5.47;2.10;;;12.00;99.90;;;;;;5065602;28;20048;-74
2023/01/22 11:58:51;;;;;;;3.30;2.20;;;12.20;99.90;;;;;;5067571;28;20071;-74
2023/01/22 12:02:04;;;;;;;4.38;1.73;;;12.40;99.90;;;;;;5067985;28;20106;-76
2023/01/22 12:04:58;;;;;;;4.88;1.60;;;12.60;99.90;;;;;;5045686;28;20048;-72
2023/01/22 12:07:35;;;;;;;5.03;1.85;;;12.70;99.90;;;;;;5048441;28;20094;-74
2023/01/22 12:10:26;;;;;;;5.53;2.55;;;12.70;99.90;;;;;;5066764;28;20090;-73
2023/01/22 12:13:09;;;;;;;6.25;3.15;;;12.70;99.90;;;;;;5058311;28;20127;-73
2023/01/22 12:15:50;;;;;;;7.50;5.03;;;12.80;99.90;;;;;;5064668;28;20052;-76
2023/01/22 12:18:56;;;;;;;4.75;2.40;;;12.90;99.90;;;;;;5065826;28;20052;-77
2023/01/22 12:21:43;;;;;;;5.88;2.58;;;12.80;99.90;;;;;;5045771;28;20059;-77
2023/01/22 12:24:30;;;;;;;8.50;4.25;;;12.70;99.90;;;;;;5045766;28;20123;-76
2023/01/22 12:27:15;;;;;;;5.07;2.40;;;12.70;99.90;;;;;;5052591;28;20539;-77
2023/01/22 12:29:49;;;;;;;6.38;3.53;;;12.60;99.90;;;;;;5066684;28;20135;-77
2023/01/22 12:32:18;;;;;;;9.15;3.40;;;12.60;99.90;;;;;;5067417;28;20226;-77
2023/01/22 12:35:04;;;;;;;9.13;5.90;;;12.60;99.90;;;;;;5072391;28;20041;-77
2023/01/22 12:37:58;;;;;;;11.52;7.10;;;12.60;99.90;;;;;;5071979;28;20094;-77
2023/01/22 12:40:48;;;;;;;12.20;6.18;;;12.70;99.90;;;;;;5054545;28;20051;-77
2023/01/22 12:43:20;;;;;;;12.10;5.43;;;12.70;99.90;;;;;;5071844;28;20781;-77
2023/01/22 12:46:12;;;;;;;5.72;3.90;;;12.80;99.90;;;;;;5054071;28;20764;-78
2023/01/22 12:49:01;;;;;;;6.55;3.83;;;12.80;99.90;;;;;;5071759;28;20460;-76
2023/01/22 12:51:41;;;;;;;7.20;3.78;;;12.80;99.90;;;;;;5070773;28;20097;-75
2023/01/22 12:54:21;;;;;;;7.35;4.22;;;12.70;99.90;;;;;;5054145;28;20045;-72
2023/01/22 12:56:51;;;;;;;8.45;3.65;;;12.60;99.90;;;;;;5070439;28;20044;-71
2023/01/22 12:59:35;;;;;;;7.65;3.38;;;12.50;99.90;;;;;;5070937;28;20041;-71
2023/01/22 13:02:25;;;;;;;6.40;3.15;;;12.40;99.90;;;;;;5054305;28;20173;-74
2023/01/22 13:04:54;;;;;;;9.63;3.13;;;12.30;99.90;;;;;;5040676;28;20048;-73
2023/01/22 13:07:28;;;;;;;8.43;3.67;;;12.10;99.90;;;;;;5071441;28;20193;-75
2023/01/22 13:10:28;;;;;;;7.78;2.70;;;12.00;99.90;;;;;;5070002;28;20363;-72
2023/01/22 13:13:20;;;;;;;5.32;2.42;;;11.90;99.90;;;;;;5064941;28;20053;-72
2023/01/22 13:16:04;;;;;;;5.70;3.15;;;11.90;99.90;;;;;;5071338;28;20101;-74
2023/01/22 13:18:40;;;;;;;6.25;3.67;;;11.80;99.90;;;;;;5070509;28;20105;-73
2023/01/22 13:21:10;;;;;;;4.20;2.30;;;11.80;99.90;;;;;;5071587;28;20076;-72
2023/01/22 13:23:46;;;;;;;9.23;3.85;;;11.90;99.90;;;;;;5069776;28;20056;-72
2023/01/22 13:26:22;;;;;;;8.63;3.45;;;11.90;99.90;;;;;;5070202;28;20502;-73
2023/01/22 13:28:56;;;;;;;10.23;5.05;;;11.90;99.90;;;;;;5069916;28;20078;-72